Portada
METAR-TAF:

METAR-TAF

Aeroports :

Aeroport Internacional de Ras al-Khaimah

Ras al-Khaimah, Emirats Àrabs Units

latitud: 25-37N, longitud: 055-56E, altitud: 31 m

Observació

L'informe es va fer fa 29 minuts, a les 20:00 UTC
Vent 11 kt del Est/Sud-Est
Temperatura 35°C
Humitat 50%
Pressió 1001 hPa
Visibilitat 10 km o més
sense núvols per sota de 1500 mi sense presència de cumulonimbus.

METAR: OMRK 252000Z 12011KT CAVOK 35/23 Q1001 A2957

Hora: 00:29 (20:29 UTC)

Pronòstic

L'informe es va fer fa 3 hores i 38 minuts, a les 16:51 UTC
Pronòstic vàlid del 25 a les 18 UTC al 27 a les 00 UTC
Vent 7 kt del Est
Visibilitat: 8000 m
Evolucionant progressivament
l' 26 a les 08 UTC al 26 a les 10 UTC
Vent 12 kt del Nord/Nord-Oest
Evolucionant progressivament
l' 26 a les 15 UTC al 26 a les 17 UTC
Vent 5 kt del Est

TAF: OMRK 251651Z 2518/2700 09007KT 8000 NSC BECMG 2608/2610 34012KT BECMG 2615/2617 09005KT

Observacions i pronòstics meteorològics de més de 4000 aeroports (METAR i TAF).

Les estacions disponibles són els punts grocs i vermells al mapa.

Posi el ratolí al punt desitjat per veure el nom de l'estació.

Feu clic per veure les observacions i els pronòstics meteorològics.

Per canviar el mapa: feu clic els botons verds amb una creu de color negre per apropar; al botó verd amb un guió per allunyar la imatge; o en les fletxes verdes per a mapes adjacents.


METAR-TAF: